KAJZ

Details ICAO KAJZ
Name BLAKE FLD
Region United States
Timezone America/Denver (UTC-7.0)
Plans Departing 1
Arriving 0
Stats Elevation 5,193 ft / 1,583 m (AMSL)
Location 38.786414° -108.063625°
Runways 1
Magnetic Variation 9.591° E
Sunrise 2017-12-11 14:22:06 UTC / 2017-12-11 07:22:06 Local
Sunset 2017-12-11 23:52:06 UTC / 2017-12-11 16:52:06 Local
Advertisement - Login to hide

Runways

ID Width Length Bearing (true) Bearing (mag) Surface Threshold Offset Overrun Length
03 75 ft / 23 m 5,597 ft / 1,706 m 41.59° 32.00° Asphalt 0 ft / 0 m 0 ft / 0 m
21 75 ft / 23 m 5,597 ft / 1,706 m 221.59° 212.00° Asphalt 0 ft / 0 m 0 ft / 0 m

Map

Weather


0- 5 10 15 20 25 30 35+ Temperature / ° C

Clouds and Precipitation
Forecast for 2017-12-11 12:00 UTC. Updated an hour ago

Ground ~20,000 ft ~40,000 ft Winds

METAR

KAJZ 110755Z AUTO 02004KT 10SM CLR M07/M19 A3056 RMK AO2 T10671188

TAF

Not found

Frequencies

Recorded 134.00 MHz AWOS 3
Unicom 122.80 MHz CTAF/UNICOM
Warning: Do not use this data for real-world aviation or navigation. No guarantee of current accuracy is given.